sensor_id;sensor_type;location;lat;lon;timestamp;pressure;altitude;pressure_sealevel;temperature;humidity
18988;BME280;5494;51.796;10.952;2023-01-25T00:02:12;101016.44;;;0.46;100.00
18988;BME280;5494;51.796;10.952;2023-01-25T00:04:40;101019.31;;;0.24;100.00
18988;BME280;5494;51.796;10.952;2023-01-25T00:07:10;101008.06;;;0.17;100.00
18988;BME280;5494;51.796;10.952;2023-01-25T00:09:38;101008.81;;;0.12;100.00
18988;BME280;5494;51.796;10.952;2023-01-25T00:12:06;101002.25;;;0.23;100.00
18988;BME280;5494;51.796;10.952;2023-01-25T00:14:34;100995.84;;;0.40;100.00
18988;BME280;5494;51.796;10.952;2023-01-25T00:17:02;100997.41;;;0.35;100.00
18988;BME280;5494;51.796;10.952;2023-01-25T00:19:30;100989.94;;;0.44;100.00
18988;BME280;5494;51.796;10.952;2023-01-25T00:21:58;100983.06;;;0.42;100.00
18988;BME280;5494;51.796;10.952;2023-01-25T00:24:27;100984.88;;;0.46;100.00
18988;BME280;5494;51.796;10.952;2023-01-25T00:26:56;100988.16;;;0.40;100.00
18988;BME280;5494;51.796;10.952;2023-01-25T00:29:23;100984.09;;;0.48;100.00
18988;BME280;5494;51.796;10.952;2023-01-25T00:32:07;100979.59;;;0.38;100.00
18988;BME280;5494;51.796;10.952;2023-01-25T00:34:56;100980.50;;;0.40;100.00
18988;BME280;5494;51.796;10.952;2023-01-25T00:37:29;100978.75;;;0.39;100.00
18988;BME280;5494;51.796;10.952;2023-01-25T00:40:06;100981.19;;;0.33;100.00
18988;BME280;5494;51.796;10.952;2023-01-25T00:42:36;100982.81;;;0.31;100.00
18988;BME280;5494;51.796;10.952;2023-01-25T00:45:06;100985.25;;;0.25;100.00
18988;BME280;5494;51.796;10.952;2023-01-25T00:47:35;100979.75;;;0.46;100.00
18988;BME280;5494;51.796;10.952;2023-01-25T00:50:05;100979.94;;;0.53;100.00
18988;BME280;5494;51.796;10.952;2023-01-25T00:52:33;100977.88;;;0.38;100.00
18988;BME280;5494;51.796;10.952;2023-01-25T00:55:01;100980.66;;;0.49;100.00
18988;BME280;5494;51.796;10.952;2023-01-25T00:57:30;100977.16;;;0.44;100.00
18988;BME280;5494;51.796;10.952;2023-01-25T00:59:58;100976.50;;;0.53;100.00
18988;BME280;5494;51.796;10.952;2023-01-25T01:02:26;100976.94;;;0.33;100.00
18988;BME280;5494;51.796;10.952;2023-01-25T01:04:57;100976.94;;;0.35;100.00
18988;BME280;5494;51.796;10.952;2023-01-25T01:07:27;100976.97;;;0.36;100.00
18988;BME280;5494;51.796;10.952;2023-01-25T01:09:55;100970.44;;;0.12;100.00
18988;BME280;5494;51.796;10.952;2023-01-25T01:12:23;100974.16;;;0.24;100.00
18988;BME280;5494;51.796;10.952;2023-01-25T01:14:52;100966.38;;;0.20;100.00
18988;BME280;5494;51.796;10.952;2023-01-25T01:17:20;100972.59;;;0.31;100.00
18988;BME280;5494;51.796;10.952;2023-01-25T01:19:48;100974.25;;;0.27;100.00
18988;BME280;5494;51.796;10.952;2023-01-25T01:22:17;100976.13;;;0.36;100.00
18988;BME280;5494;51.796;10.952;2023-01-25T01:24:46;100975.03;;;0.25;100.00
18988;BME280;5494;51.796;10.952;2023-01-25T01:27:15;100975.81;;;0.22;100.00
18988;BME280;5494;51.796;10.952;2023-01-25T01:29:43;100967.16;;;0.17;100.00
18988;BME280;5494;51.796;10.952;2023-01-25T01:32:12;100970.72;;;0.24;100.00
18988;BME280;5494;51.796;10.952;2023-01-25T01:34:41;100968.63;;;0.08;100.00
18988;BME280;5494;51.796;10.952;2023-01-25T01:37:11;100972.03;;;0.07;100.00
18988;BME280;5494;51.796;10.952;2023-01-25T01:39:39;100972.91;;;0.09;100.00
18988;BME280;5494;51.796;10.952;2023-01-25T01:42:07;100971.19;;;0.08;100.00
18988;BME280;5494;51.796;10.952;2023-01-25T01:44:45;100959.47;;;0.16;100.00
18988;BME280;5494;51.796;10.952;2023-01-25T01:47:21;100949.09;;;0.10;100.00
18988;BME280;5494;51.796;10.952;2023-01-25T01:50:00;100943.19;;;0.12;100.00
18988;BME280;5494;51.796;10.952;2023-01-25T01:52:35;100949.38;;;0.22;100.00
18988;BME280;5494;51.796;10.952;2023-01-25T01:55:10;100946.53;;;0.10;100.00
18988;BME280;5494;51.796;10.952;2023-01-25T01:57:46;100943.28;;;0.17;100.00
18988;BME280;5494;51.796;10.952;2023-01-25T02:00:19;100929.50;;;0.10;100.00
18988;BME280;5494;51.796;10.952;2023-01-25T02:02:51;100925.91;;;0.02;100.00
18988;BME280;5494;51.796;10.952;2023-01-25T02:05:26;100922.56;;;0.05;100.00
18988;BME280;5494;51.796;10.952;2023-01-25T02:07:57;100919.38;;;0.15;100.00
18988;BME280;5494;51.796;10.952;2023-01-25T02:10:27;100906.81;;;0.24;100.00
18988;BME280;5494;51.796;10.952;2023-01-25T02:12:57;100913.56;;;0.20;100.00
18988;BME280;5494;51.796;10.952;2023-01-25T02:15:28;100900.91;;;0.26;100.00
18988;BME280;5494;51.796;10.952;2023-01-25T02:18:00;100898.88;;;0.12;100.00
18988;BME280;5494;51.796;10.952;2023-01-25T02:20:36;100900.47;;;0.07;100.00
18988;BME280;5494;51.796;10.952;2023-01-25T02:23:17;100889.34;;;0.05;100.00
18988;BME280;5494;51.796;10.952;2023-01-25T02:25:49;100878.25;;;0.04;100.00
18988;BME280;5494;51.796;10.952;2023-01-25T02:28:24;100870.66;;;0.09;100.00
18988;BME280;5494;51.796;10.952;2023-01-25T02:30:53;100868.81;;;0.02;100.00
18988;BME280;5494;51.796;10.952;2023-01-25T02:33:23;100865.38;;;-0.01;100.00
18988;BME280;5494;51.796;10.952;2023-01-25T02:35:59;100861.91;;;-0.03;100.00
18988;BME280;5494;51.796;10.952;2023-01-25T02:38:31;100858.63;;;0.03;100.00
18988;BME280;5494;51.796;10.952;2023-01-25T02:41:07;100862.13;;;0.07;100.00
18988;BME280;5494;51.796;10.952;2023-01-25T02:43:39;100859.53;;;0.05;100.00
18988;BME280;5494;51.796;10.952;2023-01-25T02:46:13;100857.09;;;0.11;100.00
18988;BME280;5494;51.796;10.952;2023-01-25T02:48:44;100850.34;;;0.15;100.00
18988;BME280;5494;51.796;10.952;2023-01-25T02:51:11;100852.91;;;0.13;100.00
18988;BME280;5494;51.796;10.952;2023-01-25T02:53:40;100848.66;;;0.14;100.00
18988;BME280;5494;51.796;10.952;2023-01-25T02:56:09;100849.47;;;0.14;100.00
18988;BME280;5494;51.796;10.952;2023-01-25T02:58:37;100851.22;;;0.15;100.00
18988;BME280;5494;51.796;10.952;2023-01-25T03:01:05;100853.56;;;0.05;100.00
18988;BME280;5494;51.796;10.952;2023-01-25T03:03:33;100860.25;;;-0.01;100.00
18988;BME280;5494;51.796;10.952;2023-01-25T03:06:03;100856.81;;;-0.03;100.00
18988;BME280;5494;51.796;10.952;2023-01-25T03:08:31;100867.06;;;0.00;100.00
18988;BME280;5494;51.796;10.952;2023-01-25T03:11:02;100868.75;;;-0.02;100.00
18988;BME280;5494;51.796;10.952;2023-01-25T03:13:35;100870.63;;;0.07;100.00
18988;BME280;5494;51.796;10.952;2023-01-25T03:16:07;100869.88;;;0.11;100.00
18988;BME280;5494;51.796;10.952;2023-01-25T03:18:39;100867.28;;;0.10;100.00
18988;BME280;5494;51.796;10.952;2023-01-25T03:21:10;100862.22;;;0.11;100.00
18988;BME280;5494;51.796;10.952;2023-01-25T03:23:39;100866.41;;;0.09;100.00
18988;BME280;5494;51.796;10.952;2023-01-25T03:26:10;100863.13;;;0.13;100.00
18988;BME280;5494;51.796;10.952;2023-01-25T03:28:55;100867.28;;;0.10;100.00
18988;BME280;5494;51.796;10.952;2023-01-25T03:31:23;100865.69;;;0.15;100.00
18988;BME280;5494;51.796;10.952;2023-01-25T03:33:51;100868.94;;;0.08;100.00
18988;BME280;5494;51.796;10.952;2023-01-25T03:36:24;100858.00;;;0.15;100.00
18988;BME280;5494;51.796;10.952;2023-01-25T03:38:52;100859.81;;;0.19;100.00
18988;BME280;5494;51.796;10.952;2023-01-25T03:41:20;100855.47;;;0.15;100.00
18988;BME280;5494;51.796;10.952;2023-01-25T03:43:48;100857.41;;;0.25;100.00
18988;BME280;5494;51.796;10.952;2023-01-25T03:46:18;100849.44;;;0.11;100.00
18988;BME280;5494;51.796;10.952;2023-01-25T03:48:46;100851.28;;;0.18;100.00
18988;BME280;5494;51.796;10.952;2023-01-25T03:51:14;100863.41;;;0.28;100.00
18988;BME280;5494;51.796;10.952;2023-01-25T03:53:42;100847.09;;;0.22;100.00
18988;BME280;5494;51.796;10.952;2023-01-25T03:56:15;100847.09;;;0.22;100.00
18988;BME280;5494;51.796;10.952;2023-01-25T03:58:56;100847.94;;;0.22;100.00
18988;BME280;5494;51.796;10.952;2023-01-25T04:01:27;100851.50;;;0.27;100.00
18988;BME280;5494;51.796;10.952;2023-01-25T04:03:55;100848.81;;;0.23;100.00
18988;BME280;5494;51.796;10.952;2023-01-25T04:06:23;100853.06;;;0.22;100.00
18988;BME280;5494;51.796;10.952;2023-01-25T04:08:51;100842.44;;;0.45;100.00
18988;BME280;5494;51.796;10.952;2023-01-25T04:11:21;100848.13;;;0.30;100.00
18988;BME280;5494;51.796;10.952;2023-01-25T04:13:49;100842.19;;;0.31;100.00
18988;BME280;5494;51.796;10.952;2023-01-25T04:16:19;100845.63;;;0.33;100.00
18988;BME280;5494;51.796;10.952;2023-01-25T04:19:08;100852.31;;;0.28;100.00
18988;BME280;5494;51.796;10.952;2023-01-25T04:21:37;100849.75;;;0.26;100.00
18988;BME280;5494;51.796;10.952;2023-01-25T04:24:06;100844.66;;;0.28;100.00
18988;BME280;5494;51.796;10.952;2023-01-25T04:26:37;100837.09;;;0.32;100.00
18988;BME280;5494;51.796;10.952;2023-01-25T04:29:06;100836.97;;;0.26;100.00
18988;BME280;5494;51.796;10.952;2023-01-25T04:31:34;100826.84;;;0.31;100.00
18988;BME280;5494;51.796;10.952;2023-01-25T04:34:02;100826.50;;;0.16;100.00
18988;BME280;5494;51.796;10.952;2023-01-25T04:36:32;100824.81;;;0.16;100.00
18988;BME280;5494;51.796;10.952;2023-01-25T04:39:01;100816.47;;;0.25;100.00
18988;BME280;5494;51.796;10.952;2023-01-25T04:41:29;100813.13;;;0.29;100.00
18988;BME280;5494;51.796;10.952;2023-01-25T04:43:57;100809.69;;;0.25;100.00
18988;BME280;5494;51.796;10.952;2023-01-25T04:46:25;100797.78;;;0.27;100.00
18988;BME280;5494;51.796;10.952;2023-01-25T04:48:54;100793.63;;;0.32;100.00
18988;BME280;5494;51.796;10.952;2023-01-25T04:51:22;100799.53;;;0.30;100.00
18988;BME280;5494;51.796;10.952;2023-01-25T04:53:51;100788.25;;;0.19;100.00
18988;BME280;5494;51.796;10.952;2023-01-25T04:56:19;100796.03;;;0.25;100.00
18988;BME280;5494;51.796;10.952;2023-01-25T04:58:52;100786.53;;;0.19;100.00
18988;BME280;5494;51.796;10.952;2023-01-25T05:01:20;100787.38;;;0.18;100.00
18988;BME280;5494;51.796;10.952;2023-01-25T05:03:50;100780.50;;;0.16;100.00
18988;BME280;5494;51.796;10.952;2023-01-25T05:06:27;100781.44;;;0.21;100.00
18988;BME280;5494;51.796;10.952;2023-01-25T05:08:57;100778.06;;;0.22;100.00
18988;BME280;5494;51.796;10.952;2023-01-25T05:11:26;100784.72;;;0.14;100.00
18988;BME280;5494;51.796;10.952;2023-01-25T05:14:00;100785.75;;;0.23;100.00
18988;BME280;5494;51.796;10.952;2023-01-25T05:16:31;100783.19;;;0.23;100.00
18988;BME280;5494;51.796;10.952;2023-01-25T05:19:00;100780.69;;;0.25;100.00
18988;BME280;5494;51.796;10.952;2023-01-25T05:22:04;100783.00;;;0.14;100.00
18988;BME280;5494;51.796;10.952;2023-01-25T05:24:43;100786.97;;;-0.02;100.00
18988;BME280;5494;51.796;10.952;2023-01-25T05:27:17;100773.41;;;0.03;100.00
18988;BME280;5494;51.796;10.952;2023-01-25T05:30:06;100775.94;;;0.01;100.00
18988;BME280;5494;51.796;10.952;2023-01-25T05:32:49;100779.31;;;-0.02;100.00
18988;BME280;5494;51.796;10.952;2023-01-25T05:35:17;100785.25;;;-0.03;100.00
18988;BME280;5494;51.796;10.952;2023-01-25T05:37:46;100791.25;;;-0.01;100.00
18988;BME280;5494;51.796;10.952;2023-01-25T05:40:21;100778.34;;;-0.05;100.00
18988;BME280;5494;51.796;10.952;2023-01-25T05:42:53;100779.91;;;-0.12;100.00
18988;BME280;5494;51.796;10.952;2023-01-25T05:45:23;100774.84;;;-0.10;100.00
18988;BME280;5494;51.796;10.952;2023-01-25T05:47:53;100772.28;;;-0.10;100.00
18988;BME280;5494;51.796;10.952;2023-01-25T05:50:23;100769.53;;;-0.21;100.00
18988;BME280;5494;51.796;10.952;2023-01-25T05:53:14;100772.78;;;-0.28;100.00
18988;BME280;5494;51.796;10.952;2023-01-25T05:55:47;100763.34;;;-0.30;100.00
18988;BME280;5494;51.796;10.952;2023-01-25T05:58:16;100768.59;;;-0.24;100.00
18988;BME280;5494;51.796;10.952;2023-01-25T06:00:44;100757.63;;;-0.19;100.00
18988;BME280;5494;51.796;10.952;2023-01-25T06:03:21;100759.56;;;-0.09;100.00
18988;BME280;5494;51.796;10.952;2023-01-25T06:05:54;100763.69;;;-0.15;100.00
18988;BME280;5494;51.796;10.952;2023-01-25T06:08:23;100762.81;;;-0.16;100.00
18988;BME280;5494;51.796;10.952;2023-01-25T06:10:54;100759.84;;;-0.34;100.00
18988;BME280;5494;51.796;10.952;2023-01-25T06:13:23;100755.72;;;-0.29;100.00
18988;BME280;5494;51.796;10.952;2023-01-25T06:15:53;100750.44;;;-0.36;100.00
18988;BME280;5494;51.796;10.952;2023-01-25T06:18:41;100751.25;;;-0.37;100.00
18988;BME280;5494;51.796;10.952;2023-01-25T06:21:28;100744.69;;;-0.26;100.00
18988;BME280;5494;51.796;10.952;2023-01-25T06:23:56;100744.44;;;-0.38;100.00
18988;BME280;5494;51.796;10.952;2023-01-25T06:26:26;100748.81;;;-0.33;100.00
18988;BME280;5494;51.796;10.952;2023-01-25T06:28:54;100743.66;;;-0.36;100.00
18988;BME280;5494;51.796;10.952;2023-01-25T06:31:22;100742.13;;;-0.28;100.00
18988;BME280;5494;51.796;10.952;2023-01-25T06:33:51;100744.38;;;-0.40;100.00
18988;BME280;5494;51.796;10.952;2023-01-25T06:36:21;100744.56;;;-0.32;100.00
18988;BME280;5494;51.796;10.952;2023-01-25T06:38:51;100743.50;;;-0.42;100.00
18988;BME280;5494;51.796;10.952;2023-01-25T06:41:19;100746.19;;;-0.36;100.00
18988;BME280;5494;51.796;10.952;2023-01-25T06:43:51;100735.91;;;-0.39;100.00
18988;BME280;5494;51.796;10.952;2023-01-25T06:46:19;100729.97;;;-0.38;100.00
18988;BME280;5494;51.796;10.952;2023-01-25T06:48:47;100732.72;;;-0.29;100.00
18988;BME280;5494;51.796;10.952;2023-01-25T06:51:16;100733.56;;;-0.30;100.00
18988;BME280;5494;51.796;10.952;2023-01-25T06:53:45;100733.47;;;-0.33;100.00
18988;BME280;5494;51.796;10.952;2023-01-25T06:56:18;100734.13;;;-0.43;100.00
18988;BME280;5494;51.796;10.952;2023-01-25T06:58:48;100729.88;;;-0.43;100.00
18988;BME280;5494;51.796;10.952;2023-01-25T07:01:19;100737.50;;;-0.44;100.00
18988;BME280;5494;51.796;10.952;2023-01-25T07:03:50;100736.16;;;-0.27;100.00
18988;BME280;5494;51.796;10.952;2023-01-25T07:06:19;100733.59;;;-0.27;100.00
18988;BME280;5494;51.796;10.952;2023-01-25T07:08:47;100734.41;;;-0.29;100.00
18988;BME280;5494;51.796;10.952;2023-01-25T07:11:16;100727.50;;;-0.35;100.00
18988;BME280;5494;51.796;10.952;2023-01-25T07:13:46;100736.09;;;-0.30;100.00
18988;BME280;5494;51.796;10.952;2023-01-25T07:16:19;100734.41;;;-0.29;100.00
18988;BME280;5494;51.796;10.952;2023-01-25T07:18:47;100733.59;;;-0.27;100.00
18988;BME280;5494;51.796;10.952;2023-01-25T07:21:18;100732.06;;;-0.19;100.00
18988;BME280;5494;51.796;10.952;2023-01-25T07:23:47;100721.00;;;-0.19;100.00
18988;BME280;5494;51.796;10.952;2023-01-25T07:26:17;100720.25;;;-0.15;100.00
18988;BME280;5494;51.796;10.952;2023-01-25T07:28:47;100715.09;;;-0.17;100.00
18988;BME280;5494;51.796;10.952;2023-01-25T07:31:18;100712.53;;;-0.17;100.00
18988;BME280;5494;51.796;10.952;2023-01-25T07:33:47;100713.56;;;-0.09;100.00
18988;BME280;5494;51.796;10.952;2023-01-25T07:36:17;100714.53;;;-0.02;100.00
18988;BME280;5494;51.796;10.952;2023-01-25T07:38:45;100717.13;;;-0.01;100.00
18988;BME280;5494;51.796;10.952;2023-01-25T07:41:14;100701.75;;;-0.02;100.00
18988;BME280;5494;51.796;10.952;2023-01-25T07:43:42;100711.88;;;-0.07;100.00
18988;BME280;5494;51.796;10.952;2023-01-25T07:46:12;100710.09;;;-0.11;100.00
18988;BME280;5494;51.796;10.952;2023-01-25T07:48:45;100710.09;;;-0.11;100.00
18988;BME280;5494;51.796;10.952;2023-01-25T07:51:16;100707.47;;;-0.15;100.00
18988;BME280;5494;51.796;10.952;2023-01-25T07:53:54;100711.88;;;-0.07;100.00
18988;BME280;5494;51.796;10.952;2023-01-25T07:56:25;100712.69;;;-0.09;100.00
18988;BME280;5494;51.796;10.952;2023-01-25T07:58:55;100703.88;;;-0.23;100.00
18988;BME280;5494;51.796;10.952;2023-01-25T08:01:26;100710.78;;;-0.19;100.00
18988;BME280;5494;51.796;10.952;2023-01-25T08:03:56;100710.53;;;-0.31;100.00
18988;BME280;5494;51.796;10.952;2023-01-25T08:06:27;100713.13;;;-0.30;100.00
18988;BME280;5494;51.796;10.952;2023-01-25T08:08:58;100713.13;;;-0.30;100.00
18988;BME280;5494;51.796;10.952;2023-01-25T08:11:29;100709.94;;;-0.18;100.00
18988;BME280;5494;51.796;10.952;2023-01-25T08:13:58;100714.34;;;-0.11;100.00
18988;BME280;5494;51.796;10.952;2023-01-25T08:16:29;100707.44;;;-0.17;100.00
18988;BME280;5494;51.796;10.952;2023-01-25T08:19:01;100711.88;;;-0.08;100.00
18988;BME280;5494;51.796;10.952;2023-01-25T08:21:32;100708.69;;;0.04;100.00
18988;BME280;5494;51.796;10.952;2023-01-25T08:24:03;100711.03;;;-0.06;100.00
18988;BME280;5494;51.796;10.952;2023-01-25T08:26:33;100709.53;;;0.04;100.00
18988;BME280;5494;51.796;10.952;2023-01-25T08:29:02;100705.06;;;-0.06;100.00
18988;BME280;5494;51.796;10.952;2023-01-25T08:31:32;100704.19;;;-0.08;100.00
18988;BME280;5494;51.796;10.952;2023-01-25T08:34:03;100712.03;;;-0.01;100.00
18988;BME280;5494;51.796;10.952;2023-01-25T08:36:31;100700.06;;;-0.02;100.00
18988;BME280;5494;51.796;10.952;2023-01-25T08:39:02;100696.13;;;0.16;100.00
18988;BME280;5494;51.796;10.952;2023-01-25T08:41:31;100692.16;;;0.31;100.00
18988;BME280;5494;51.796;10.952;2023-01-25T08:44:00;100684.53;;;0.33;100.00
18988;BME280;5494;51.796;10.952;2023-01-25T08:46:31;100678.78;;;0.46;100.00
18988;BME280;5494;51.796;10.952;2023-01-25T08:49:02;100680.44;;;0.44;100.00
18988;BME280;5494;51.796;10.952;2023-01-25T08:51:31;100682.09;;;0.42;100.00
18988;BME280;5494;51.796;10.952;2023-01-25T08:54:03;100679.69;;;0.50;100.00
18988;BME280;5494;51.796;10.952;2023-01-25T08:56:32;100684.88;;;0.53;100.00
18988;BME280;5494;51.796;10.952;2023-01-25T08:59:00;100673.84;;;0.55;100.00
18988;BME280;5494;51.796;10.952;2023-01-25T09:01:28;100673.72;;;0.49;100.00
18988;BME280;5494;51.796;10.952;2023-01-25T09:03:57;100667.75;;;0.50;100.00
18988;BME280;5494;51.796;10.952;2023-01-25T09:06:27;100669.47;;;0.50;100.00
18988;BME280;5494;51.796;10.952;2023-01-25T09:08:56;100668.72;;;0.55;100.00
18988;BME280;5494;51.796;10.952;2023-01-25T09:11:24;100660.44;;;0.71;100.00
18988;BME280;5494;51.796;10.952;2023-01-25T09:13:53;100664.31;;;0.47;100.00
18988;BME280;5494;51.796;10.952;2023-01-25T09:16:23;100667.91;;;0.58;100.00
18988;BME280;5494;51.796;10.952;2023-01-25T09:18:57;100663.84;;;0.69;100.00
18988;BME280;5494;51.796;10.952;2023-01-25T09:21:28;100663.06;;;0.74;100.00
18988;BME280;5494;51.796;10.952;2023-01-25T09:23:56;100655.38;;;0.74;100.00
18988;BME280;5494;51.796;10.952;2023-01-25T09:26:35;100654.66;;;0.82;100.00
18988;BME280;5494;51.796;10.952;2023-01-25T09:29:04;100648.84;;;0.93;100.00
18988;BME280;5494;51.796;10.952;2023-01-25T09:31:34;100647.94;;;0.90;100.00
18988;BME280;5494;51.796;10.952;2023-01-25T09:34:14;100646.63;;;1.16;100.00
18988;BME280;5494;51.796;10.952;2023-01-25T09:36:43;100647.09;;;1.51;100.00
18988;BME280;5494;51.796;10.952;2023-01-25T09:39:12;100642.16;;;1.68;100.00
18988;BME280;5494;51.796;10.952;2023-01-25T09:42:23;100640.28;;;1.51;100.00
18988;BME280;5494;51.796;10.952;2023-01-25T09:45:15;100626.13;;;1.16;100.00
18988;BME280;5494;51.796;10.952;2023-01-25T09:47:53;100631.38;;;1.25;100.00
18988;BME280;5494;51.796;10.952;2023-01-25T09:50:33;100627.94;;;1.25;100.00
18988;BME280;5494;51.796;10.952;2023-01-25T09:53:32;100621.22;;;1.33;100.00
18988;BME280;5494;51.796;10.952;2023-01-25T09:56:08;100618.75;;;1.37;100.00
18988;BME280;5494;51.796;10.952;2023-01-25T09:58:43;100604.41;;;1.53;100.00
18988;BME280;5494;51.796;10.952;2023-01-25T10:01:24;100608.81;;;1.65;100.00
18988;BME280;5494;51.796;10.952;2023-01-25T10:04:14;100603.84;;;1.78;100.00
18988;BME280;5494;51.796;10.952;2023-01-25T10:06:48;100605.34;;;1.61;100.00
18988;BME280;5494;51.796;10.952;2023-01-25T10:09:39;100611.47;;;1.74;100.00
18988;BME280;5494;51.796;10.952;2023-01-25T10:12:18;100605.63;;;1.84;100.00
18988;BME280;5494;51.796;10.952;2023-01-25T10:14:48;100606.44;;;1.81;100.00
18988;BME280;5494;51.796;10.952;2023-01-25T10:17:26;100612.47;;;1.85;100.00
18988;BME280;5494;51.796;10.952;2023-01-25T10:20:14;100614.13;;;1.81;100.00
18988;BME280;5494;51.796;10.952;2023-01-25T10:22:51;100604.44;;;1.56;100.00
18988;BME280;5494;51.796;10.952;2023-01-25T10:25:31;100600.72;;;1.33;100.00
18988;BME280;5494;51.796;10.952;2023-01-25T10:28:22;100599.34;;;0.93;100.00
18988;BME280;5494;51.796;10.952;2023-01-25T10:31:00;100589.63;;;0.69;100.00
18988;BME280;5494;51.796;10.952;2023-01-25T10:33:32;100587.25;;;0.81;100.00
18988;BME280;5494;51.796;10.952;2023-01-25T10:36:06;100581.34;;;0.87;100.00
18988;BME280;5494;51.796;10.952;2023-01-25T10:38:39;100569.50;;;0.93;100.00
18988;BME280;5494;51.796;10.952;2023-01-25T10:41:17;100557.00;;;1.16;100.00
18988;BME280;5494;51.796;10.952;2023-01-25T10:43:46;100552.78;;;1.21;100.00
18988;BME280;5494;51.796;10.952;2023-01-25T10:46:37;100554.63;;;1.31;100.00
18988;BME280;5494;51.796;10.952;2023-01-25T10:49:22;100551.91;;;1.19;100.00
18988;BME280;5494;51.796;10.952;2023-01-25T10:51:50;100550.00;;;1.03;100.00
18988;BME280;5494;51.796;10.952;2023-01-25T10:54:21;100533.19;;;1.23;100.00
18988;BME280;5494;51.796;10.952;2023-01-25T10:56:51;100536.47;;;1.13;100.00
18988;BME280;5494;51.796;10.952;2023-01-25T10:59:23;100529.41;;;0.94;100.00
18988;BME280;5494;51.796;10.952;2023-01-25T11:01:53;100532.06;;;1.01;100.00
18988;BME280;5494;51.796;10.952;2023-01-25T11:04:29;100526.28;;;1.19;100.00
18988;BME280;5494;51.796;10.952;2023-01-25T11:07:03;100525.53;;;1.26;100.00
18988;BME280;5494;51.796;10.952;2023-01-25T11:09:37;100511.97;;;1.35;100.00
18988;BME280;5494;51.796;10.952;2023-01-25T11:12:18;100505.47;;;1.64;100.00
18988;BME280;5494;51.796;10.952;2023-01-25T11:14:48;100507.94;;;1.59;100.00
18988;BME280;5494;51.796;10.952;2023-01-25T11:17:27;100502.97;;;1.73;100.00
18988;BME280;5494;51.796;10.952;2023-01-25T11:20:14;100508.09;;;1.73;100.00
18988;BME280;5494;51.796;10.952;2023-01-25T11:22:51;100496.28;;;1.86;100.00
18988;BME280;5494;51.796;10.952;2023-01-25T11:25:30;100494.56;;;1.85;100.00
18988;BME280;5494;51.796;10.952;2023-01-25T11:28:17;100487.72;;;1.85;100.00
18988;BME280;5494;51.796;10.952;2023-01-25T11:30:47;100478.94;;;1.61;100.00
18988;BME280;5494;51.796;10.952;2023-01-25T11:33:18;100467.81;;;1.60;100.00
18988;BME280;5494;51.796;10.952;2023-01-25T11:36:08;100460.25;;;1.71;100.00
18988;BME280;5494;51.796;10.952;2023-01-25T11:38:43;100457.69;;;1.72;100.00
18988;BME280;5494;51.796;10.952;2023-01-25T11:41:23;100450.94;;;1.82;100.00
18988;BME280;5494;51.796;10.952;2023-01-25T11:44:22;100448.31;;;1.74;100.00
18988;BME280;5494;51.796;10.952;2023-01-25T11:47:02;100448.31;;;1.73;100.00
18988;BME280;5494;51.796;10.952;2023-01-25T11:49:51;100437.72;;;1.36;100.00
18988;BME280;5494;51.796;10.952;2023-01-25T11:52:32;100431.69;;;1.31;100.00
18988;BME280;5494;51.796;10.952;2023-01-25T11:55:18;100434.38;;;1.46;100.00
18988;BME280;5494;51.796;10.952;2023-01-25T11:58:10;100429.06;;;1.24;100.00
18988;BME280;5494;51.796;10.952;2023-01-25T12:01:03;100422.16;;;1.16;100.00
18988;BME280;5494;51.796;10.952;2023-01-25T12:04:00;100413.53;;;1.08;100.00
18988;BME280;5494;51.796;10.952;2023-01-25T12:06:43;100415.19;;;1.03;100.00
18988;BME280;5494;51.796;10.952;2023-01-25T12:09:30;100401.66;;;1.18;100.00
18988;BME280;5494;51.796;10.952;2023-01-25T12:12:20;100398.50;;;1.46;100.00
18988;BME280;5494;51.796;10.952;2023-01-25T12:15:11;100392.63;;;1.56;100.00
18988;BME280;5494;51.796;10.952;2023-01-25T12:18:09;100375.34;;;1.31;100.00
18988;BME280;5494;51.796;10.952;2023-01-25T12:21:03;100379.72;;;1.43;100.00
18988;BME280;5494;51.796;10.952;2023-01-25T12:23:48;100372.03;;;1.43;100.00
18988;BME280;5494;51.796;10.952;2023-01-25T12:26:26;100372.06;;;1.49;100.00
18988;BME280;5494;51.796;10.952;2023-01-25T12:29:03;100366.13;;;1.50;100.00
18988;BME280;5494;51.796;10.952;2023-01-25T12:31:42;100367.84;;;1.54;100.00
18988;BME280;5494;51.796;10.952;2023-01-25T12:34:21;100361.78;;;1.46;100.00
18988;BME280;5494;51.796;10.952;2023-01-25T12:36:52;100359.97;;;1.33;100.00
18988;BME280;5494;51.796;10.952;2023-01-25T12:39:25;100363.50;;;1.45;100.00
18988;BME280;5494;51.796;10.952;2023-01-25T12:42:02;100364.28;;;1.35;100.00
18988;BME280;5494;51.796;10.952;2023-01-25T12:44:39;100354.00;;;1.32;100.00
18988;BME280;5494;51.796;10.952;2023-01-25T12:47:14;100344.63;;;1.34;100.00
18988;BME280;5494;51.796;10.952;2023-01-25T12:49:52;100349.75;;;1.34;100.00
18988;BME280;5494;51.796;10.952;2023-01-25T12:52:28;100347.09;;;1.25;100.00
18988;BME280;5494;51.796;10.952;2023-01-25T12:55:00;100348.88;;;1.32;100.00
18988;BME280;5494;51.796;10.952;2023-01-25T12:57:36;100336.13;;;1.38;100.00
18988;BME280;5494;51.796;10.952;2023-01-25T13:00:16;100331.81;;;1.33;100.00
18988;BME280;5494;51.796;10.952;2023-01-25T13:03:09;100324.91;;;1.24;100.00
18988;BME280;5494;51.796;10.952;2023-01-25T13:05:48;100329.22;;;1.28;100.00
18988;BME280;5494;51.796;10.952;2023-01-25T13:08:32;100324.97;;;1.33;100.00
18988;BME280;5494;51.796;10.952;2023-01-25T13:11:11;100314.75;;;1.35;100.00
18988;BME280;5494;51.796;10.952;2023-01-25T13:13:42;100311.19;;;1.19;100.00
18988;BME280;5494;51.796;10.952;2023-01-25T13:16:41;100303.47;;;1.10;100.00
18988;BME280;5494;51.796;10.952;2023-01-25T13:19:19;100304.31;;;1.10;100.00
18988;BME280;5494;51.796;10.952;2023-01-25T13:21:50;100296.63;;;1.09;100.00